Time;durP1;ratioP1;P1;durP2;ratioP2;P2;SDS_P1;SDS_P2;PMS_P1;PMS_P2;Temp;Humidity;BMP_temperature;BMP_pressure;BME280_temperature;BME280_humidity;BME280_pressure;Samples;Min_cycle;Max_cycle;Signal;HPM_P1;HPM_P2
2022/06/16 00:00:18;;;;;;;3.27;3.07;;;16.40;99.90;;;;;;493976;241;28873;-71
2022/06/16 00:02:20;;;;;;;3.40;3.20;;;16.40;99.90;;;;;;493841;241;28925;-71
2022/06/16 00:04:21;;;;;;;3.67;3.37;;;16.50;99.90;;;;;;494035;241;29201;-74
2022/06/16 00:06:22;;;;;;;2.87;2.67;;;16.60;99.90;;;;;;494006;241;28917;-71
2022/06/16 00:08:23;;;;;;;3.27;3.07;;;16.60;99.90;;;;;;494049;241;28820;-72
2022/06/16 00:10:25;;;;;;;3.10;2.90;;;16.60;99.90;;;;;;494038;241;29413;-71
2022/06/16 00:12:26;;;;;;;3.33;3.07;;;16.60;99.90;;;;;;494033;241;29296;-71
2022/06/16 00:14:29;;;;;;;3.23;3.03;;;16.70;99.90;;;;;;494043;241;29379;-73
2022/06/16 00:16:28;;;;;;;3.00;2.80;;;16.70;99.90;;;;;;493861;241;29254;-71
2022/06/16 00:18:30;;;;;;;3.27;3.07;;;16.70;99.90;;;;;;493807;241;28910;-72
2022/06/16 00:20:31;;;;;;;2.77;2.57;;;16.60;99.90;;;;;;494024;241;28887;-71
2022/06/16 00:22:32;;;;;;;3.60;3.30;;;16.50;99.90;;;;;;494013;241;28836;-72
2022/06/16 00:24:33;;;;;;;3.50;3.30;;;16.50;99.90;;;;;;494033;241;29184;-71
2022/06/16 00:26:35;;;;;;;3.47;3.20;;;16.50;99.90;;;;;;493986;241;28853;-71
2022/06/16 00:28:36;;;;;;;2.87;2.70;;;16.50;99.90;;;;;;494018;241;28922;-72
2022/06/16 00:30:37;;;;;;;3.50;3.30;;;16.50;99.90;;;;;;494010;241;28784;-71
2022/06/16 00:32:38;;;;;;;2.97;2.77;;;16.40;99.90;;;;;;494007;241;29293;-71
2022/06/16 00:34:40;;;;;;;3.20;3.00;;;16.50;99.90;;;;;;494036;241;29412;-74
2022/06/16 00:36:41;;;;;;;3.50;3.20;;;16.50;99.90;;;;;;494046;241;29268;-71
2022/06/16 00:38:42;;;;;;;3.30;3.10;;;16.40;99.90;;;;;;493805;241;29384;-71
2022/06/16 00:40:44;;;;;;;3.43;3.17;;;16.40;99.90;;;;;;493950;241;28801;-71
2022/06/16 00:42:45;;;;;;;3.03;2.83;;;16.40;99.90;;;;;;494005;241;28867;-71
2022/06/16 00:44:46;;;;;;;2.90;2.70;;;16.40;99.90;;;;;;494008;241;28966;-71
2022/06/16 00:46:47;;;;;;;3.23;3.03;;;16.20;99.90;;;;;;494018;241;28787;-72
2022/06/16 00:48:48;;;;;;;2.97;2.77;;;16.10;99.90;;;;;;494056;237;28836;-73
2022/06/16 00:50:50;;;;;;;3.20;3.00;;;16.10;99.90;;;;;;493851;241;28804;-71
2022/06/16 00:52:51;;;;;;;3.17;2.97;;;16.10;99.90;;;;;;494049;241;28839;-72
2022/06/16 00:54:52;;;;;;;3.37;3.17;;;16.10;99.90;;;;;;494044;237;28822;-74
2022/06/16 00:56:53;;;;;;;3.63;3.00;;;16.00;99.90;;;;;;493989;241;29348;-71
2022/06/16 00:58:55;;;;;;;3.50;3.00;;;16.00;99.90;;;;;;494039;241;29342;-73
2022/06/16 01:00:56;;;;;;;3.03;2.83;;;15.90;99.90;;;;;;494032;241;29411;-71
2022/06/16 01:02:57;;;;;;;3.40;3.20;;;15.90;99.90;;;;;;494007;241;29378;-72
2022/06/16 01:04:58;;;;;;;3.50;3.20;;;16.00;99.90;;;;;;494074;241;28824;-71
2022/06/16 01:07:00;;;;;;;2.90;2.73;;;15.90;99.90;;;;;;494075;241;28796;-71
2022/06/16 01:09:01;;;;;;;3.17;3.07;;;15.90;99.90;;;;;;494062;241;28940;-71
2022/06/16 01:11:03;;;;;;;3.30;3.07;;;15.90;99.90;;;;;;493897;241;28876;-71
2022/06/16 01:15:23;;;;;;;3.20;3.00;;;15.80;99.90;;;;;;494056;241;28942;-73
2022/06/16 01:17:24;;;;;;;3.20;3.00;;;15.90;99.90;;;;;;494039;241;28780;-71
2022/06/16 01:19:25;;;;;;;2.93;2.73;;;15.80;99.90;;;;;;493974;241;28845;-71
2022/06/16 01:21:27;;;;;;;3.17;2.87;;;15.80;99.90;;;;;;494028;241;28839;-71
2022/06/16 01:23:28;;;;;;;3.40;3.20;;;15.80;99.90;;;;;;494009;241;28824;-71
2022/06/16 01:25:29;;;;;;;2.63;2.53;;;15.90;99.90;;;;;;494061;241;28844;-74
2022/06/16 01:27:30;;;;;;;4.67;2.70;;;15.90;99.90;;;;;;494034;241;28784;-71
2022/06/16 01:29:33;;;;;;;3.50;3.30;;;15.80;99.90;;;;;;494038;241;28816;-71
2022/06/16 01:31:33;;;;;;;3.20;3.00;;;15.70;99.90;;;;;;493918;241;29324;-71
2022/06/16 01:33:35;;;;;;;3.40;3.20;;;15.70;99.90;;;;;;494033;241;29399;-72
2022/06/16 01:35:35;;;;;;;2.87;2.70;;;15.70;99.90;;;;;;494037;241;29322;-73
2022/06/16 01:37:37;;;;;;;2.97;2.77;;;15.70;99.90;;;;;;494023;241;28816;-71
2022/06/16 01:39:38;;;;;;;3.00;2.80;;;15.70;99.90;;;;;;493974;241;28823;-71
2022/06/16 01:41:39;;;;;;;3.07;2.87;;;15.70;99.90;;;;;;494033;241;28779;-71
2022/06/16 01:43:40;;;;;;;3.37;3.10;;;15.70;99.90;;;;;;494004;241;28832;-71
2022/06/16 01:45:42;;;;;;;3.20;3.00;;;15.70;99.90;;;;;;494019;241;29330;-71
2022/06/16 01:47:43;;;;;;;3.00;2.80;;;15.70;99.90;;;;;;494020;241;28882;-71
2022/06/16 01:49:44;;;;;;;3.30;2.77;;;15.70;99.90;;;;;;494009;239;28824;-71
2022/06/16 01:51:45;;;;;;;3.33;3.13;;;15.70;99.90;;;;;;493990;241;28894;-71
2022/06/16 01:53:47;;;;;;;2.73;2.60;;;15.60;99.90;;;;;;493998;241;28943;-72
2022/06/16 01:55:48;;;;;;;2.97;2.77;;;15.60;99.90;;;;;;494018;241;29500;-71
2022/06/16 01:57:49;;;;;;;2.60;2.50;;;15.60;99.90;;;;;;494007;241;29265;-71
2022/06/16 01:59:50;;;;;;;8.13;2.87;;;15.50;99.90;;;;;;494028;241;29306;-71
2022/06/16 02:01:52;;;;;;;2.97;2.77;;;15.50;99.90;;;;;;493969;237;29349;-71
2022/06/16 02:03:54;;;;;;;2.50;2.30;;;15.50;99.90;;;;;;493953;241;28831;-71
2022/06/16 02:05:54;;;;;;;3.07;2.87;;;15.50;99.90;;;;;;493992;240;28825;-71
2022/06/16 02:07:55;;;;;;;3.00;2.80;;;15.50;99.90;;;;;;493995;241;28850;-71
2022/06/16 02:09:57;;;;;;;3.50;3.00;;;15.50;99.90;;;;;;494008;241;28911;-72
2022/06/16 02:11:58;;;;;;;3.10;2.90;;;15.50;99.90;;;;;;494013;241;28781;-71
2022/06/16 02:13:59;;;;;;;3.00;2.80;;;15.50;99.90;;;;;;494017;241;28828;-70
2022/06/16 02:16:00;;;;;;;3.20;3.00;;;15.40;99.90;;;;;;494065;241;28813;-71
2022/06/16 02:18:02;;;;;;;3.27;3.07;;;15.40;99.90;;;;;;493951;241;28796;-71
2022/06/16 02:20:03;;;;;;;3.30;3.00;;;15.40;99.90;;;;;;494044;241;28908;-72
2022/06/16 02:22:04;;;;;;;3.20;2.93;;;15.30;99.90;;;;;;494044;241;29293;-71
2022/06/16 02:24:05;;;;;;;3.20;3.00;;;15.30;99.90;;;;;;494055;241;29339;-71
2022/06/16 02:26:07;;;;;;;3.60;3.40;;;15.20;99.90;;;;;;494025;241;29243;-70
2022/06/16 02:28:08;;;;;;;2.90;2.70;;;15.10;99.90;;;;;;494014;241;28902;-71
2022/06/16 02:30:09;;;;;;;3.47;3.20;;;15.10;99.90;;;;;;494011;241;28812;-72
2022/06/16 02:32:10;;;;;;;3.70;3.50;;;15.20;99.90;;;;;;494025;241;28813;-71
2022/06/16 02:34:12;;;;;;;3.07;2.87;;;15.10;99.90;;;;;;493997;241;28927;-71
2022/06/16 02:36:13;;;;;;;3.07;2.87;;;15.10;99.90;;;;;;493993;239;28910;-70
2022/06/16 02:38:14;;;;;;;2.70;2.60;;;15.20;99.90;;;;;;494013;241;28823;-70
2022/06/16 02:40:16;;;;;;;3.20;3.00;;;15.10;99.90;;;;;;494035;241;28931;-72
2022/06/16 02:42:17;;;;;;;4.70;2.90;;;15.10;99.90;;;;;;494000;239;28808;-70
2022/06/16 02:44:18;;;;;;;3.43;3.20;;;15.00;99.90;;;;;;493994;241;28962;-70
2022/06/16 02:46:21;;;;;;;3.30;3.03;;;15.00;99.90;;;;;;493990;241;29242;-70
2022/06/16 02:48:21;;;;;;;3.30;3.10;;;15.00;99.90;;;;;;493898;241;29314;-70
2022/06/16 02:50:23;;;;;;;3.20;3.00;;;14.90;99.90;;;;;;493865;241;29337;-73
2022/06/16 02:52:26;;;;;;;3.37;2.93;;;15.00;99.90;;;;;;493976;241;29316;-70
2022/06/16 02:54:24;;;;;;;3.20;3.00;;;15.00;99.90;;;;;;493778;241;28862;-71
2022/06/16 02:56:26;;;;;;;3.00;2.80;;;15.00;99.90;;;;;;494014;241;28820;-70
2022/06/16 02:58:27;;;;;;;3.20;3.00;;;15.10;99.90;;;;;;494014;241;28797;-71
2022/06/16 03:00:28;;;;;;;3.20;3.00;;;15.00;99.90;;;;;;494030;241;28887;-73
2022/06/16 03:02:29;;;;;;;3.43;3.23;;;15.10;99.90;;;;;;494020;241;28893;-70
2022/06/16 03:04:31;;;;;;;3.50;3.20;;;15.10;99.90;;;;;;494018;241;28875;-70
2022/06/16 03:06:32;;;;;;;3.00;2.80;;;15.10;99.90;;;;;;494009;241;28980;-70
2022/06/16 03:08:33;;;;;;;3.20;3.00;;;15.10;99.90;;;;;;493952;241;28846;-70
2022/06/16 03:10:53;;;;;;;3.40;3.20;;;15.00;99.90;;;;;;494014;241;29454;-71
2022/06/16 03:12:54;;;;;;;3.43;3.23;;;15.00;99.90;;;;;;493961;241;28796;-70
2022/06/16 03:14:55;;;;;;;3.30;3.10;;;15.00;99.90;;;;;;494009;241;29261;-72
2022/06/16 03:16:56;;;;;;;3.40;3.20;;;14.90;99.90;;;;;;494003;241;30214;-70
2022/06/16 03:18:57;;;;;;;3.47;3.20;;;14.90;99.90;;;;;;494018;241;29245;-70
2022/06/16 03:20:59;;;;;;;3.53;3.33;;;15.00;99.90;;;;;;494006;241;29406;-72
2022/06/16 03:23:00;;;;;;;3.57;3.27;;;15.00;99.90;;;;;;494010;241;28790;-71
2022/06/16 03:25:01;;;;;;;3.00;2.80;;;15.00;99.90;;;;;;493786;241;28855;-72
2022/06/16 03:27:02;;;;;;;3.40;3.20;;;15.00;99.90;;;;;;493471;241;28833;-71
2022/06/16 03:29:04;;;;;;;6.90;3.30;;;15.00;99.90;;;;;;493862;241;28802;-71
2022/06/16 03:31:05;;;;;;;4.13;3.43;;;14.80;99.90;;;;;;493972;241;29215;-73
2022/06/16 03:33:06;;;;;;;3.47;3.17;;;14.80;99.90;;;;;;493786;241;28806;-71
2022/06/16 03:35:07;;;;;;;3.10;2.90;;;14.80;99.90;;;;;;494033;241;28867;-72
2022/06/16 03:37:09;;;;;;;3.13;2.90;;;14.90;99.90;;;;;;494015;241;28844;-71
2022/06/16 03:39:10;;;;;;;3.40;3.10;;;14.90;99.90;;;;;;494027;241;28787;-72
2022/06/16 03:41:11;;;;;;;2.90;2.70;;;14.90;99.90;;;;;;494040;241;29450;-72
2022/06/16 03:43:12;;;;;;;3.23;3.03;;;14.90;99.90;;;;;;494030;241;29253;-71
2022/06/16 03:45:14;;;;;;;2.90;2.70;;;14.90;99.90;;;;;;494056;241;29307;-72
2022/06/16 03:47:15;;;;;;;3.17;2.97;;;14.90;99.90;;;;;;494042;241;29679;-71
2022/06/16 03:49:16;;;;;;;3.47;3.27;;;15.00;99.90;;;;;;494083;241;28810;-71
2022/06/16 03:51:18;;;;;;;3.30;3.10;;;15.00;99.90;;;;;;494052;241;28837;-72
2022/06/16 03:53:19;;;;;;;3.20;2.90;;;14.90;99.90;;;;;;493953;241;28824;-71
2022/06/16 03:55:20;;;;;;;3.30;3.10;;;14.90;99.90;;;;;;494028;241;28853;-72
2022/06/16 03:57:21;;;;;;;3.53;3.23;;;14.90;99.90;;;;;;494026;241;28786;-72
2022/06/16 03:59:22;;;;;;;3.13;2.90;;;15.00;99.90;;;;;;494023;241;28820;-72
2022/06/16 04:01:24;;;;;;;3.40;3.10;;;15.10;99.90;;;;;;494052;241;28919;-73
2022/06/16 04:05:44;;;;;;;3.20;3.00;;;15.10;99.90;;;;;;494022;241;29422;-71
2022/06/16 04:07:46;;;;;;;3.30;3.10;;;15.20;99.90;;;;;;494021;241;29452;-71
2022/06/16 04:09:47;;;;;;;3.40;3.20;;;15.30;99.90;;;;;;494024;241;28797;-72
2022/06/16 04:11:48;;;;;;;3.40;3.10;;;15.30;99.90;;;;;;494019;241;28836;-74
2022/06/16 04:13:49;;;;;;;2.80;2.60;;;15.30;99.90;;;;;;493842;241;28869;-72
2022/06/16 04:15:51;;;;;;;3.37;3.07;;;15.40;99.90;;;;;;494014;241;28882;-71
2022/06/16 04:17:52;;;;;;;4.10;3.70;;;15.40;99.90;;;;;;494021;241;28860;-71
2022/06/16 04:22:13;;;;;;;3.40;3.10;;;15.50;99.90;;;;;;494040;241;29395;-71
2022/06/16 04:24:14;;;;;;;3.53;3.23;;;15.50;99.90;;;;;;494012;241;29282;-71
2022/06/16 04:26:15;;;;;;;3.53;3.23;;;15.60;99.90;;;;;;493930;241;29366;-72
2022/06/16 04:28:16;;;;;;;3.30;3.00;;;15.70;99.90;;;;;;494046;241;29344;-73
2022/06/16 04:30:18;;;;;;;3.10;2.90;;;15.70;99.90;;;;;;494058;241;28801;-71
2022/06/16 04:32:19;;;;;;;3.53;3.23;;;15.70;99.90;;;;;;494030;241;28835;-72
2022/06/16 04:34:20;;;;;;;3.47;3.17;;;15.70;99.90;;;;;;494025;241;28801;-72
2022/06/16 04:36:21;;;;;;;3.10;2.90;;;15.80;99.90;;;;;;494044;241;28912;-72
2022/06/16 04:38:23;;;;;;;2.80;2.70;;;15.90;99.90;;;;;;494072;241;28965;-75
2022/06/16 04:40:24;;;;;;;3.30;3.10;;;16.00;99.90;;;;;;494054;241;28962;-72
2022/06/16 04:42:25;;;;;;;3.10;2.90;;;16.00;99.90;;;;;;494024;241;28820;-72
2022/06/16 04:44:26;;;;;;;3.27;3.00;;;16.10;99.90;;;;;;494053;241;28891;-72
2022/06/16 04:46:28;;;;;;;3.43;3.23;;;16.10;99.90;;;;;;494008;241;29312;-72
2022/06/16 04:48:29;;;;;;;3.07;2.87;;;16.10;99.90;;;;;;494049;241;29334;-75
2022/06/16 04:50:30;;;;;;;3.40;3.20;;;16.20;99.90;;;;;;493978;241;29286;-72
2022/06/16 04:52:31;;;;;;;3.90;3.60;;;16.10;99.90;;;;;;494047;241;29514;-72
2022/06/16 04:54:33;;;;;;;3.47;3.17;;;16.20;99.90;;;;;;494022;241;28884;-72
2022/06/16 04:56:34;;;;;;;3.60;3.30;;;16.20;99.90;;;;;;493992;241;28896;-71
2022/06/16 04:58:35;;;;;;;3.63;3.43;;;16.20;99.90;;;;;;494083;241;28836;-73
2022/06/16 05:00:37;;;;;;;3.40;3.20;;;16.20;99.90;;;;;;494063;241;28794;-72
2022/06/16 05:02:38;;;;;;;3.90;3.40;;;16.10;99.90;;;;;;494053;241;28928;-72
2022/06/16 05:04:39;;;;;;;4.07;3.40;;;15.90;99.90;;;;;;494014;241;28926;-72
2022/06/16 05:06:40;;;;;;;3.77;3.47;;;15.90;99.90;;;;;;494003;241;28825;-72
2022/06/16 05:08:41;;;;;;;3.40;3.20;;;15.90;99.90;;;;;;494029;237;28820;-74
2022/06/16 05:10:43;;;;;;;3.77;3.47;;;15.90;99.90;;;;;;494007;241;28849;-72
2022/06/16 05:12:44;;;;;;;3.53;3.23;;;15.90;99.90;;;;;;494025;241;29285;-72
2022/06/16 05:14:45;;;;;;;3.87;3.67;;;16.00;99.90;;;;;;494047;241;29442;-71
2022/06/16 05:16:46;;;;;;;3.70;3.40;;;16.00;99.90;;;;;;494021;241;29340;-72
2022/06/16 05:18:48;;;;;;;4.30;4.00;;;16.00;99.90;;;;;;494032;241;28852;-73
2022/06/16 05:20:49;;;;;;;3.93;3.50;;;16.00;99.90;;;;;;494025;241;28808;-72
2022/06/16 05:22:50;;;;;;;3.67;3.47;;;16.00;99.90;;;;;;494027;241;28904;-72
2022/06/16 05:24:51;;;;;;;3.53;3.33;;;16.10;99.90;;;;;;494032;241;28804;-72
2022/06/16 05:26:53;;;;;;;3.80;3.60;;;16.30;99.90;;;;;;493977;241;28809;-73
2022/06/16 05:28:54;;;;;;;3.67;3.47;;;16.40;99.90;;;;;;494042;241;28933;-72
2022/06/16 05:30:55;;;;;;;3.67;3.37;;;16.50;99.90;;;;;;493992;241;28932;-72
2022/06/16 05:32:56;;;;;;;3.97;3.67;;;16.70;99.90;;;;;;494040;241;28872;-73
2022/06/16 05:34:58;;;;;;;3.80;3.50;;;17.00;99.90;;;;;;494035;241;28789;-72
2022/06/16 05:36:59;;;;;;;4.90;4.40;;;17.30;99.90;;;;;;494001;241;29289;-72
2022/06/16 05:39:00;;;;;;;4.20;3.90;;;17.40;99.90;;;;;;494037;241;30166;-72
2022/06/16 05:41:01;;;;;;;3.20;3.00;;;17.50;99.90;;;;;;493889;241;29421;-72
2022/06/16 05:43:03;;;;;;;7.20;4.17;;;17.50;99.90;;;;;;493946;241;28828;-73
2022/06/16 05:45:04;;;;;;;3.60;3.30;;;17.60;99.90;;;;;;494018;241;28797;-72
2022/06/16 05:47:05;;;;;;;4.00;3.70;;;17.70;99.90;;;;;;494034;241;28834;-72
2022/06/16 05:49:06;;;;;;;4.03;3.70;;;17.70;99.90;;;;;;494014;241;28850;-72
2022/06/16 05:51:08;;;;;;;7.23;3.80;;;17.80;99.90;;;;;;494039;241;28784;-72
2022/06/16 05:53:09;;;;;;;5.70;3.50;;;17.90;99.90;;;;;;494032;241;28912;-73
2022/06/16 05:55:10;;;;;;;3.90;3.60;;;18.00;99.90;;;;;;494031;241;28888;-72
2022/06/16 05:57:11;;;;;;;3.57;3.33;;;18.00;99.90;;;;;;494025;241;28826;-73
2022/06/16 05:59:14;;;;;;;4.00;3.53;;;18.00;99.90;;;;;;494040;241;28777;-72
2022/06/16 06:01:14;;;;;;;4.60;4.13;;;18.00;99.90;;;;;;493989;241;29363;-71
2022/06/16 06:03:15;;;;;;;4.00;3.70;;;18.00;99.90;;;;;;494073;241;29336;-73
2022/06/16 06:05:16;;;;;;;4.10;3.70;;;18.10;99.90;;;;;;494016;241;29268;-71
2022/06/16 06:07:18;;;;;;;4.00;3.70;;;18.10;99.90;;;;;;494067;241;29325;-72
2022/06/16 06:16:28;;;;;;;3.83;3.43;;;18.40;99.90;;;;;;494044;241;28870;-74
2022/06/16 06:18:28;;;;;;;5.03;3.90;;;18.50;99.90;;;;;;493824;241;28940;-72
2022/06/16 06:20:29;;;;;;;3.73;3.43;;;18.50;99.90;;;;;;494027;241;28939;-72
2022/06/16 06:22:30;;;;;;;7.27;3.90;;;18.70;99.90;;;;;;494027;241;28829;-72
2022/06/16 06:24:32;;;;;;;5.73;4.40;;;18.70;99.90;;;;;;494008;241;28849;-72
2022/06/16 06:26:33;;;;;;;4.23;3.83;;;18.80;99.90;;;;;;494021;241;28790;-71
2022/06/16 06:28:34;;;;;;;5.10;3.80;;;18.80;99.90;;;;;;494020;241;28920;-73
2022/06/16 06:30:35;;;;;;;3.90;3.60;;;18.90;99.90;;;;;;493982;241;28978;-72
2022/06/16 06:32:37;;;;;;;4.50;3.73;;;18.90;99.90;;;;;;493985;241;28838;-72
2022/06/16 06:34:38;;;;;;;4.30;4.00;;;19.00;99.90;;;;;;494029;241;28883;-72
2022/06/16 06:36:39;;;;;;;4.50;4.10;;;19.10;99.90;;;;;;494029;241;29262;-72
2022/06/16 06:38:40;;;;;;;7.40;4.80;;;19.10;99.90;;;;;;494013;241;29380;-73
2022/06/16 06:40:42;;;;;;;6.50;4.10;;;19.30;99.90;;;;;;494037;241;29394;-72
2022/06/16 06:42:43;;;;;;;5.50;4.43;;;19.30;99.90;;;;;;493843;241;28833;-73
2022/06/16 06:44:44;;;;;;;4.73;4.00;;;19.40;99.90;;;;;;493995;241;28918;-72
2022/06/16 06:46:45;;;;;;;6.63;4.70;;;19.50;99.90;;;;;;494048;241;28916;-72
2022/06/16 06:48:47;;;;;;;5.00;4.57;;;19.50;99.90;;;;;;494052;241;28828;-72
2022/06/16 06:50:48;;;;;;;4.60;4.30;;;19.60;99.90;;;;;;494009;241;28895;-72
2022/06/16 06:52:49;;;;;;;4.97;4.43;;;19.60;99.90;;;;;;494000;241;28880;-72
2022/06/16 06:54:50;;;;;;;4.53;4.13;;;19.60;99.90;;;;;;493892;241;28958;-75
2022/06/16 06:56:52;;;;;;;5.00;3.83;;;19.60;99.90;;;;;;494032;241;28885;-72
2022/06/16 06:58:53;;;;;;;4.23;3.80;;;19.70;99.90;;;;;;493892;241;28820;-72
2022/06/16 07:00:54;;;;;;;4.30;3.90;;;19.80;99.90;;;;;;494022;241;29248;-72
2022/06/16 07:02:55;;;;;;;4.73;3.63;;;19.90;99.90;;;;;;493920;241;29398;-72
2022/06/16 07:04:57;;;;;;;3.90;3.60;;;19.90;99.90;;;;;;494027;241;29414;-73
2022/06/16 07:06:58;;;;;;;3.83;3.53;;;19.90;99.90;;;;;;494020;241;29388;-72
2022/06/16 07:08:59;;;;;;;4.17;3.77;;;20.00;99.90;;;;;;494019;241;28833;-72
2022/06/16 07:11:00;;;;;;;4.83;4.30;;;19.90;99.90;;;;;;494006;241;28796;-72
2022/06/16 07:13:02;;;;;;;4.40;4.00;;;19.90;99.90;;;;;;494002;241;28820;-72
2022/06/16 07:15:03;;;;;;;5.10;3.57;;;20.00;99.90;;;;;;493951;241;28836;-72
2022/06/16 07:17:04;;;;;;;5.17;4.03;;;20.00;99.90;;;;;;493995;241;28809;-72
2022/06/16 07:19:06;;;;;;;5.07;4.60;;;20.00;99.90;;;;;;494021;241;28873;-72
2022/06/16 07:21:07;;;;;;;5.60;3.53;;;20.00;99.90;;;;;;494027;241;28815;-72
2022/06/16 07:23:08;;;;;;;3.57;3.27;;;20.00;99.90;;;;;;493995;241;28841;-72
2022/06/16 07:25:09;;;;;;;5.37;3.80;;;20.00;99.90;;;;;;494024;241;29397;-74
2022/06/16 07:27:10;;;;;;;4.27;3.97;;;20.00;99.90;;;;;;494027;241;29348;-72
2022/06/16 07:29:12;;;;;;;6.50;4.00;;;20.10;99.90;;;;;;494024;241;29343;-73
2022/06/16 07:31:13;;;;;;;5.27;3.70;;;20.20;99.90;;;;;;494060;241;28879;-72
2022/06/16 07:33:14;;;;;;;3.27;3.07;;;20.20;99.90;;;;;;494032;241;28832;-72
2022/06/16 07:35:15;;;;;;;5.50;3.57;;;20.20;99.90;;;;;;494046;241;28838;-74
2022/06/16 07:37:17;;;;;;;5.07;4.00;;;20.30;99.90;;;;;;494035;241;28899;-72
2022/06/16 07:39:18;;;;;;;3.77;3.47;;;20.30;99.90;;;;;;494030;241;28824;-73
2022/06/16 07:41:31;;;;;;;4.33;3.20;;;20.30;99.90;;;;;;493960;241;28811;-72
2022/06/16 07:43:35;;;;;;;5.43;3.67;;;20.50;99.90;;;;;;494030;241;28804;-72
2022/06/16 07:45:35;;;;;;;4.23;3.93;;;20.50;99.90;;;;;;493823;241;28913;-73
2022/06/16 07:47:35;;;;;;;4.37;3.97;;;20.60;99.90;;;;;;493994;241;28876;-72
2022/06/16 07:49:36;;;;;;;4.70;3.67;;;20.70;99.90;;;;;;493993;241;28848;-72
2022/06/16 07:51:38;;;;;;;3.73;3.40;;;20.70;99.90;;;;;;494007;241;28791;-72
2022/06/16 07:53:39;;;;;;;5.17;3.90;;;20.90;99.90;;;;;;493901;241;28828;-72
2022/06/16 07:55:40;;;;;;;5.67;3.80;;;20.90;99.90;;;;;;494006;241;28829;-74
2022/06/16 07:57:41;;;;;;;3.77;3.47;;;20.90;99.90;;;;;;494039;241;29242;-72
2022/06/16 07:59:44;;;;;;;4.33;3.87;;;20.80;99.90;;;;;;494008;241;29308;-73
2022/06/16 08:01:44;;;;;;;5.30;3.93;;;21.00;99.90;;;;;;493942;241;29433;-72
2022/06/16 08:03:46;;;;;;;3.73;3.30;;;21.20;99.90;;;;;;494007;241;28920;-72
2022/06/16 08:05:46;;;;;;;7.10;3.83;;;21.20;99.90;;;;;;493958;241;28871;-71
2022/06/16 08:07:48;;;;;;;4.50;4.10;;;21.10;99.90;;;;;;494014;241;28795;-72
2022/06/16 08:09:49;;;;;;;6.70;3.53;;;21.10;99.90;;;;;;493919;241;28825;-72
2022/06/16 08:12:07;;;;;;;3.97;3.67;;;21.10;99.90;;;;;;494039;241;28796;-71
2022/06/16 08:14:06;;;;;;;3.60;3.37;;;21.20;99.90;;;;;;493867;241;28861;-73
2022/06/16 08:16:08;;;;;;;4.03;3.73;;;21.30;99.90;;;;;;494004;241;28922;-71
2022/06/16 08:18:10;;;;;;;4.63;4.23;;;21.30;99.90;;;;;;494039;241;28911;-73
2022/06/16 08:20:10;;;;;;;4.20;3.80;;;21.40;99.90;;;;;;493918;241;29268;-71
2022/06/16 08:22:12;;;;;;;3.83;3.53;;;21.40;99.90;;;;;;494001;241;29444;-72
2022/06/16 08:24:13;;;;;;;4.43;3.57;;;21.40;99.90;;;;;;494030;241;29981;-71
2022/06/16 08:26:14;;;;;;;3.90;3.60;;;21.40;99.90;;;;;;493957;241;29375;-72
2022/06/16 08:28:15;;;;;;;5.13;3.43;;;21.40;99.90;;;;;;494036;241;28928;-72
2022/06/16 08:30:16;;;;;;;7.80;4.00;;;21.50;99.90;;;;;;494032;241;28835;-71
2022/06/16 08:32:18;;;;;;;3.80;3.60;;;21.70;99.90;;;;;;493956;241;28835;-72
2022/06/16 08:34:19;;;;;;;3.50;3.20;;;21.60;99.90;;;;;;494042;241;28900;-71
2022/06/16 08:36:20;;;;;;;3.77;3.47;;;21.60;99.90;;;;;;494047;241;28843;-72
2022/06/16 08:38:21;;;;;;;3.70;3.47;;;21.90;99.90;;;;;;494067;241;28834;-72
2022/06/16 08:40:23;;;;;;;6.00;3.93;;;21.90;99.90;;;;;;493831;241;28798;-71
2022/06/16 08:42:24;;;;;;;3.93;3.53;;;21.90;99.90;;;;;;494033;241;28833;-72
2022/06/16 08:44:25;;;;;;;3.97;3.67;;;21.80;99.90;;;;;;494046;241;28877;-71
2022/06/16 08:46:27;;;;;;;4.03;3.50;;;21.90;99.90;;;;;;494039;241;29304;-71
2022/06/16 08:48:28;;;;;;;5.83;3.50;;;22.00;99.90;;;;;;494042;241;29293;-73
2022/06/16 08:50:29;;;;;;;5.30;3.90;;;22.00;99.90;;;;;;494021;241;29253;-71
2022/06/16 08:52:30;;;;;;;6.03;4.03;;;22.10;99.90;;;;;;494013;241;28949;-72
2022/06/16 08:54:32;;;;;;;4.47;3.80;;;22.00;99.90;;;;;;494047;241;28821;-71
2022/06/16 08:56:33;;;;;;;4.70;3.80;;;22.10;99.90;;;;;;493959;241;28796;-72
2022/06/16 08:58:34;;;;;;;3.73;3.30;;;22.20;99.90;;;;;;494030;241;28842;-72
2022/06/16 09:00:35;;;;;;;3.43;3.13;;;22.20;99.90;;;;;;494022;241;28785;-72
2022/06/16 09:02:36;;;;;;;4.90;3.57;;;22.00;99.90;;;;;;494019;241;28890;-72
2022/06/16 09:04:38;;;;;;;3.53;3.23;;;22.00;99.90;;;;;;494072;241;28936;-71
2022/06/16 09:06:39;;;;;;;3.93;3.30;;;22.20;99.90;;;;;;494046;241;28883;-71
2022/06/16 09:08:40;;;;;;;4.70;3.67;;;22.40;99.90;;;;;;494121;241;28856;-72
2022/06/16 09:10:41;;;;;;;3.73;3.40;;;22.30;99.90;;;;;;494077;241;29251;-71
2022/06/16 09:12:43;;;;;;;3.90;3.50;;;22.20;99.90;;;;;;494093;241;29427;-71
2022/06/16 09:17:03;;;;;;;3.80;3.47;;;22.30;99.90;;;;;;494050;241;29341;-72
2022/06/16 09:19:04;;;;;;;5.00;3.30;;;22.30;99.90;;;;;;494045;241;29349;-72
2022/06/16 09:21:06;;;;;;;5.00;3.43;;;22.30;99.90;;;;;;494034;241;29324;-71
2022/06/16 09:23:07;;;;;;;4.77;3.37;;;22.40;99.90;;;;;;494034;241;28824;-72
2022/06/16 09:25:08;;;;;;;3.67;3.37;;;22.30;99.90;;;;;;494039;241;28810;-71
2022/06/16 09:27:09;;;;;;;3.80;3.50;;;22.40;99.90;;;;;;494035;241;28826;-71
2022/06/16 09:29:11;;;;;;;3.43;3.13;;;22.50;99.90;;;;;;490578;241;39110;-74
2022/06/16 09:31:13;;;;;;;3.30;3.00;;;22.70;99.90;;;;;;494052;241;28879;-72
2022/06/16 09:33:13;;;;;;;3.27;3.00;;;22.70;99.90;;;;;;493970;241;28823;-72
2022/06/16 09:35:14;;;;;;;3.93;2.97;;;22.70;99.90;;;;;;494061;241;28908;-71
2022/06/16 09:37:16;;;;;;;3.87;3.30;;;22.70;99.90;;;;;;494031;241;28811;-71
2022/06/16 09:39:17;;;;;;;4.83;3.10;;;22.80;99.90;;;;;;494053;241;28839;-72
2022/06/16 09:43:38;;;;;;;6.27;3.90;;;22.60;99.90;;;;;;494053;241;28813;-72
2022/06/16 09:45:39;;;;;;;3.73;3.30;;;22.60;99.90;;;;;;494046;241;28822;-73
2022/06/16 09:47:40;;;;;;;4.90;3.60;;;22.70;99.90;;;;;;494013;241;28894;-72
2022/06/16 09:49:41;;;;;;;3.60;3.30;;;22.70;99.90;;;;;;494024;241;29276;-72
2022/06/16 09:51:43;;;;;;;2.93;2.73;;;22.70;99.90;;;;;;494041;241;29528;-71
2022/06/16 09:53:44;;;;;;;3.10;2.90;;;22.60;99.90;;;;;;494061;241;29334;-72
2022/06/16 09:55:45;;;;;;;3.93;3.10;;;22.70;99.90;;;;;;494041;241;28949;-72
2022/06/16 09:57:46;;;;;;;5.23;3.23;;;22.90;99.90;;;;;;494009;241;28773;-71
2022/06/16 09:59:48;;;;;;;4.63;3.50;;;23.10;99.90;;;;;;494036;241;28846;-72
2022/06/16 10:01:49;;;;;;;3.70;3.40;;;23.00;99.90;;;;;;494046;241;28771;-71
2022/06/16 10:03:50;;;;;;;3.90;3.60;;;22.90;99.90;;;;;;494028;241;28797;-72
2022/06/16 10:05:52;;;;;;;3.37;3.07;;;23.00;99.90;;;;;;494035;241;28930;-73
2022/06/16 10:07:54;;;;;;;4.43;3.37;;;23.10;99.90;;;;;;493975;241;28884;-71
2022/06/16 10:09:54;;;;;;;3.33;3.07;;;23.20;99.90;;;;;;493989;241;28820;-71
2022/06/16 10:11:55;;;;;;;3.43;3.23;;;23.20;99.90;;;;;;494022;241;28824;-72
2022/06/16 10:13:56;;;;;;;3.67;3.27;;;23.10;99.90;;;;;;494037;241;29328;-72
2022/06/16 10:15:58;;;;;;;3.80;3.40;;;23.10;99.90;;;;;;494043;241;29320;-72
2022/06/16 10:17:59;;;;;;;3.83;3.53;;;23.10;99.90;;;;;;494046;241;29319;-72
2022/06/16 10:20:00;;;;;;;3.67;3.03;;;23.30;99.90;;;;;;494017;241;29489;-71
2022/06/16 10:22:01;;;;;;;4.40;3.27;;;23.30;99.90;;;;;;493786;241;28821;-74
2022/06/16 10:24:03;;;;;;;4.10;3.10;;;23.50;99.90;;;;;;493935;241;28844;-71
2022/06/16 10:26:04;;;;;;;4.57;3.37;;;23.50;99.90;;;;;;494009;241;28828;-72
2022/06/16 10:28:05;;;;;;;4.70;3.87;;;23.40;99.90;;;;;;494021;241;28869;-71
2022/06/16 10:30:07;;;;;;;5.50;3.37;;;23.50;99.90;;;;;;494034;241;28847;-71
2022/06/16 10:32:08;;;;;;;7.80;3.10;;;23.50;99.90;;;;;;494069;241;28853;-73
2022/06/16 10:34:09;;;;;;;3.30;3.00;;;23.70;99.90;;;;;;494031;241;28801;-71
2022/06/16 10:36:10;;;;;;;3.30;3.00;;;23.70;99.90;;;;;;493998;241;28915;-72
2022/06/16 10:38:11;;;;;;;3.07;2.67;;;23.70;99.90;;;;;;494041;241;30106;-71
2022/06/16 10:40:13;;;;;;;3.00;2.80;;;23.70;99.90;;;;;;494058;241;29256;-72
2022/06/16 10:42:14;;;;;;;3.60;3.17;;;23.60;99.90;;;;;;494072;241;29346;-73
2022/06/16 10:44:15;;;;;;;4.43;3.03;;;23.70;99.90;;;;;;494065;241;28801;-71
2022/06/16 10:46:16;;;;;;;2.90;2.70;;;23.70;99.90;;;;;;494022;241;28851;-72
2022/06/16 10:48:18;;;;;;;2.60;2.47;;;23.70;99.90;;;;;;494049;241;28819;-71
2022/06/16 10:50:19;;;;;;;2.70;2.50;;;23.70;99.90;;;;;;494041;241;28777;-71